createdAt,value
2022-08-02T00:00:34.156Z,1.00
2022-08-02T00:03:01.269Z,1.15
2022-08-02T00:05:28.321Z,0.80
2022-08-02T00:07:55.371Z,1.00
2022-08-02T00:10:22.454Z,1.00
2022-08-02T00:12:49.511Z,1.08
2022-08-02T00:15:16.678Z,0.90
2022-08-02T00:17:44.668Z,1.20
2022-08-02T00:20:13.776Z,1.10
2022-08-02T00:22:40.995Z,1.10
2022-08-02T00:25:08.315Z,0.95
2022-08-02T00:27:35.467Z,1.05
2022-08-02T00:30:02.679Z,1.15
2022-08-02T00:32:29.665Z,1.13
2022-08-02T00:34:56.779Z,1.13
2022-08-02T00:37:23.821Z,1.10
2022-08-02T00:39:50.903Z,1.55
2022-08-02T00:42:18.260Z,1.08
2022-08-02T00:44:45.504Z,1.48
2022-08-02T00:47:14.996Z,1.42
2022-08-02T00:49:47.104Z,1.52
2022-08-02T00:52:14.642Z,1.67
2022-08-02T00:54:42.201Z,1.75
2022-08-02T00:57:09.349Z,1.50
2022-08-02T00:59:39.058Z,1.40
2022-08-02T01:02:06.101Z,1.83
2022-08-02T01:04:33.151Z,2.00
2022-08-02T01:07:12.094Z,1.70
2022-08-02T01:09:42.310Z,1.63
2022-08-02T01:12:09.879Z,1.50
2022-08-02T01:14:37.697Z,1.42
2022-08-02T01:17:15.618Z,1.50
2022-08-02T01:20:16.884Z,1.52
2022-08-02T01:23:11.158Z,1.10
2022-08-02T01:25:53.512Z,1.40
2022-08-02T01:28:39.194Z,1.67
2022-08-02T01:31:09.322Z,1.35
2022-08-02T01:33:41.937Z,1.50
2022-08-02T01:36:13.345Z,1.30
2022-08-02T01:38:45.043Z,1.50
2022-08-02T01:41:25.118Z,1.40
2022-08-02T01:43:58.402Z,1.42
2022-08-02T01:46:29.246Z,1.60
2022-08-02T01:48:58.375Z,1.70
2022-08-02T01:51:45.718Z,1.42
2022-08-02T01:54:17.650Z,1.50
2022-08-02T01:56:46.055Z,1.65
2022-08-02T01:59:16.938Z,1.70
2022-08-02T02:01:46.219Z,1.52
2022-08-02T02:04:14.488Z,1.60
2022-08-02T02:06:44.868Z,1.88
2022-08-02T02:09:14.538Z,1.60
2022-08-02T02:12:06.257Z,1.65
2022-08-02T02:14:33.412Z,1.70
2022-08-02T02:17:02.875Z,1.77
2022-08-02T02:19:30.942Z,1.70
2022-08-02T02:21:58.219Z,1.42
2022-08-02T02:24:25.248Z,1.80
2022-08-02T02:26:52.942Z,1.63
2022-08-02T02:29:24.883Z,1.92
2022-08-02T02:31:54.702Z,1.55
2022-08-02T02:34:27.011Z,2.30
2022-08-02T02:36:56.705Z,1.52
2022-08-02T02:39:26.593Z,1.90
2022-08-02T02:41:56.809Z,1.80
2022-08-02T02:44:25.068Z,1.80
2022-08-02T02:46:54.855Z,1.60
2022-08-02T02:49:23.134Z,1.90
2022-08-02T02:51:51.859Z,1.95
2022-08-02T02:54:33.212Z,2.00
2022-08-02T02:57:02.727Z,1.90
2022-08-02T02:59:30.496Z,1.65
2022-08-02T03:01:58.876Z,1.77
2022-08-02T03:04:56.143Z,1.92
2022-08-02T03:07:15.744Z,1.90
2022-08-02T03:09:42.764Z,2.08
2022-08-02T03:12:10.868Z,1.98
2022-08-02T03:14:44.562Z,1.90
2022-08-02T03:17:16.764Z,1.70
2022-08-02T03:19:44.757Z,2.55
2022-08-02T03:22:12.280Z,2.10
2022-08-02T03:24:39.671Z,2.08
2022-08-02T03:27:06.656Z,2.25
2022-08-02T03:29:41.837Z,2.50
2022-08-02T03:32:09.043Z,2.25
2022-08-02T03:34:36.349Z,2.10
2022-08-02T03:37:04.269Z,2.60
2022-08-02T03:39:32.540Z,2.40
2022-08-02T03:41:59.662Z,2.22
2022-08-02T03:44:27.105Z,2.72
2022-08-02T03:46:55.087Z,2.05
2022-08-02T03:49:22.583Z,2.20
2022-08-02T03:51:49.921Z,2.10
2022-08-02T03:54:18.656Z,2.28
2022-08-02T03:56:46.141Z,2.22
2022-08-02T03:59:15.071Z,2.05
2022-08-02T04:01:42.973Z,2.05
2022-08-02T04:04:10.219Z,2.35
2022-08-02T04:06:40.180Z,2.10
2022-08-02T04:09:09.856Z,2.70
2022-08-02T04:11:38.102Z,2.50
2022-08-02T04:14:09.329Z,3.00
2022-08-02T04:16:40.613Z,2.63
2022-08-02T04:19:15.128Z,2.88
2022-08-02T04:21:51.535Z,2.70
2022-08-02T04:24:27.871Z,2.58
2022-08-02T04:27:01.114Z,2.70
2022-08-02T04:29:35.477Z,3.03
2022-08-02T04:32:05.103Z,2.78
2022-08-02T04:34:32.093Z,2.92
2022-08-02T04:37:00.341Z,3.08
2022-08-02T04:39:28.047Z,3.38
2022-08-02T04:41:57.803Z,3.33
2022-08-02T04:44:25.401Z,3.70
2022-08-02T04:46:52.910Z,3.30
2022-08-02T04:49:19.977Z,3.25
2022-08-02T04:51:47.528Z,3.25
2022-08-02T04:54:14.609Z,3.53
2022-08-02T04:56:41.697Z,3.58
2022-08-02T04:59:09.214Z,3.28
2022-08-02T05:01:36.579Z,3.42
2022-08-02T05:04:04.236Z,3.28
2022-08-02T05:06:31.824Z,3.03
2022-08-02T05:08:58.906Z,3.70
2022-08-02T05:11:36.471Z,4.00
2022-08-02T05:14:05.490Z,4.18
2022-08-02T05:16:33.098Z,4.85
2022-08-02T05:19:02.037Z,4.40
2022-08-02T05:21:29.137Z,4.40
2022-08-02T05:23:56.099Z,3.92
2022-08-02T05:26:23.122Z,4.15
2022-08-02T05:28:50.194Z,4.28
2022-08-02T05:31:17.143Z,4.60
2022-08-02T05:33:44.170Z,4.70
2022-08-02T05:36:11.133Z,4.15
2022-08-02T05:38:38.288Z,3.95
2022-08-02T05:41:06.147Z,4.30
2022-08-02T05:43:33.621Z,4.45
2022-08-02T05:46:00.623Z,5.18
2022-08-02T05:48:31.642Z,4.28
2022-08-02T05:51:48.512Z,4.35
2022-08-02T05:54:52.690Z,4.43
2022-08-02T05:57:43.574Z,4.03
2022-08-02T06:00:15.452Z,4.72
2022-08-02T06:03:06.665Z,4.88
2022-08-02T06:05:39.691Z,4.45
2022-08-02T06:08:10.766Z,4.57
2022-08-02T06:10:40.504Z,4.18
2022-08-02T06:13:14.222Z,5.13
2022-08-02T06:15:52.931Z,4.30
2022-08-02T06:18:28.363Z,4.45
2022-08-02T06:22:32.820Z,4.47
2022-08-02T06:23:57.371Z,4.65
2022-08-02T06:26:26.519Z,4.35
2022-08-02T06:28:54.820Z,4.28
2022-08-02T06:31:21.892Z,4.72
2022-08-02T06:33:48.913Z,3.58
2022-08-02T06:36:37.845Z,4.10
2022-08-02T06:39:28.616Z,4.40
2022-08-02T06:42:01.339Z,3.83
2022-08-02T06:47:16.051Z,4.15
2022-08-02T06:49:51.859Z,3.53
2022-08-02T06:52:31.851Z,4.45
2022-08-02T06:55:01.073Z,4.32
2022-08-02T06:57:28.882Z,4.10
2022-08-02T06:59:56.496Z,3.90
2022-08-02T07:02:23.981Z,3.92
2022-08-02T07:04:51.157Z,4.43
2022-08-02T07:07:18.242Z,3.58
2022-08-02T07:10:00.684Z,4.18
2022-08-02T07:12:33.476Z,4.03
2022-08-02T07:15:02.459Z,3.50
2022-08-02T07:17:30.331Z,3.80
2022-08-02T07:19:58.371Z,2.92
2022-08-02T07:22:27.427Z,3.10
2022-08-02T07:24:56.759Z,3.15
2022-08-02T07:27:24.769Z,2.50
2022-08-02T07:29:52.380Z,2.85
2022-08-02T07:32:21.422Z,2.50
2022-08-02T07:34:52.774Z,2.40
2022-08-02T07:37:53.630Z,2.20
2022-08-02T07:40:14.601Z,1.60
2022-08-02T07:42:43.298Z,1.92
2022-08-02T07:45:11.609Z,1.40
2022-08-02T07:47:42.920Z,1.80
2022-08-02T07:50:11.991Z,1.65
2022-08-02T07:52:40.040Z,1.75
2022-08-02T07:55:07.746Z,1.73
2022-08-02T07:57:34.896Z,1.40
2022-08-02T08:00:01.943Z,1.60
2022-08-02T08:02:29.023Z,1.40
2022-08-02T08:04:55.973Z,1.23
2022-08-02T08:07:23.454Z,1.30
2022-08-02T08:09:56.248Z,1.00
2022-08-02T08:12:23.939Z,1.13
2022-08-02T08:14:50.987Z,1.10
2022-08-02T08:17:18.137Z,1.10
2022-08-02T08:19:51.663Z,1.02
2022-08-02T08:22:24.244Z,0.80
2022-08-02T08:24:51.191Z,1.00
2022-08-02T08:27:19.814Z,0.80
2022-08-02T08:29:47.082Z,0.90
2022-08-02T08:32:17.532Z,1.00
2022-08-02T08:34:49.026Z,1.10
2022-08-02T08:37:18.557Z,0.75
2022-08-02T08:39:57.389Z,0.80
2022-08-02T08:42:29.222Z,0.68
2022-08-02T08:44:57.220Z,0.80
2022-08-02T08:47:41.569Z,0.90
2022-08-02T08:50:22.722Z,0.70
2022-08-02T08:53:07.256Z,0.60
2022-08-02T08:55:36.107Z,1.75
2022-08-02T08:58:05.582Z,0.75
2022-08-02T09:00:34.773Z,0.88
2022-08-02T09:03:07.148Z,0.88
2022-08-02T09:05:39.093Z,0.95
2022-08-02T09:08:06.539Z,0.90
2022-08-02T09:10:47.102Z,0.80
2022-08-02T09:13:44.826Z,0.70
2022-08-02T09:16:14.747Z,0.90
2022-08-02T09:18:47.189Z,0.70
2022-08-02T09:21:17.023Z,0.60
2022-08-02T09:23:47.645Z,0.70
2022-08-02T09:26:17.323Z,0.80
2022-08-02T09:28:46.741Z,0.50
2022-08-02T09:31:22.257Z,0.70
2022-08-02T09:33:57.860Z,0.75
2022-08-02T09:36:26.176Z,0.70
2022-08-02T09:39:05.008Z,0.60
2022-08-02T09:41:34.678Z,0.68
2022-08-02T09:44:06.536Z,0.60
2022-08-02T09:46:38.539Z,0.80
2022-08-02T09:49:13.937Z,0.70
2022-08-02T09:51:52.907Z,0.85
2022-08-02T09:54:23.979Z,0.80
2022-08-02T09:57:01.846Z,0.80
2022-08-02T09:59:31.347Z,0.88
2022-08-02T10:02:02.222Z,1.10
2022-08-02T10:04:53.384Z,0.90
2022-08-02T10:07:24.197Z,0.95
2022-08-02T10:09:52.246Z,0.82
2022-08-02T10:12:20.998Z,0.80
2022-08-02T10:15:02.706Z,0.80
2022-08-02T10:17:30.194Z,0.80
2022-08-02T10:20:01.873Z,0.70
2022-08-02T10:22:32.471Z,0.63
2022-08-02T10:25:02.187Z,0.70
2022-08-02T10:27:43.154Z,0.90
2022-08-02T10:30:17.567Z,0.60
2022-08-02T10:32:46.511Z,0.55
2022-08-02T10:35:25.822Z,0.80
2022-08-02T10:37:58.302Z,0.57
2022-08-02T10:40:27.141Z,0.70
2022-08-02T10:43:01.061Z,0.70
2022-08-02T10:45:28.757Z,1.20
2022-08-02T10:48:04.547Z,0.80
2022-08-02T10:50:47.053Z,1.00
2022-08-02T10:53:33.487Z,0.70
2022-08-02T10:56:02.947Z,0.80
2022-08-02T10:58:34.660Z,0.70
2022-08-02T11:01:38.690Z,0.80
2022-08-02T11:04:10.571Z,0.70
2022-08-02T11:07:06.992Z,0.63
2022-08-02T11:09:34.617Z,0.60
2022-08-02T11:12:11.247Z,0.65
2022-08-02T11:14:43.675Z,0.73
2022-08-02T11:17:19.186Z,0.70
2022-08-02T11:20:12.323Z,0.70
2022-08-02T11:22:40.493Z,0.70
2022-08-02T11:25:22.775Z,0.50
2022-08-02T11:27:50.566Z,0.60
2022-08-02T11:30:18.205Z,0.50
2022-08-02T11:32:45.535Z,0.50
2022-08-02T11:35:12.609Z,0.50
2022-08-02T11:37:45.007Z,0.47
2022-08-02T11:40:19.841Z,0.82
2022-08-02T11:42:53.827Z,0.63
2022-08-02T11:45:29.607Z,0.70
2022-08-02T11:47:57.399Z,0.70
2022-08-02T11:50:29.825Z,0.85
2022-08-02T11:52:57.947Z,0.80
2022-08-02T11:55:29.628Z,0.70
2022-08-02T11:58:05.923Z,0.60
2022-08-02T12:00:33.989Z,0.80
2022-08-02T12:03:01.568Z,0.60
2022-08-02T12:06:03.894Z,0.98
2022-08-02T12:08:19.035Z,0.82
2022-08-02T12:10:50.488Z,1.00
2022-08-02T12:13:17.569Z,1.10
2022-08-02T12:15:46.345Z,0.70
2022-08-02T12:18:37.780Z,0.88
2022-08-02T12:21:22.262Z,0.60
2022-08-02T12:23:57.122Z,0.70
2022-08-02T12:26:28.377Z,0.60
2022-08-02T12:29:00.060Z,0.60
2022-08-02T12:31:57.593Z,0.70
2022-08-02T12:34:30.068Z,0.70
2022-08-02T12:37:08.204Z,0.75
2022-08-02T12:39:36.649Z,0.80
2022-08-02T12:42:05.019Z,0.80
2022-08-02T12:44:32.789Z,0.90
2022-08-02T12:47:09.785Z,0.70
2022-08-02T12:49:37.106Z,0.70
2022-08-02T12:52:22.684Z,0.80
2022-08-02T12:54:50.266Z,0.70
2022-08-02T12:57:19.651Z,0.77
2022-08-02T12:59:53.271Z,0.82
2022-08-02T13:02:21.664Z,0.70
2022-08-02T13:04:50.056Z,0.60
2022-08-02T13:07:17.747Z,0.80
2022-08-02T13:09:46.093Z,0.75
2022-08-02T13:12:13.407Z,0.60
2022-08-02T13:14:42.822Z,0.70
2022-08-02T13:17:12.754Z,0.60
2022-08-02T13:19:41.073Z,0.60
2022-08-02T13:22:08.460Z,0.65
2022-08-02T13:24:40.055Z,0.60
2022-08-02T13:27:23.070Z,0.75
2022-08-02T13:29:51.349Z,0.70
2022-08-02T13:32:18.881Z,0.75
2022-08-02T13:34:46.233Z,0.63
2022-08-02T13:37:13.893Z,0.50
2022-08-02T13:39:40.889Z,0.60
2022-08-02T13:42:08.033Z,0.70
2022-08-02T13:44:35.782Z,0.52
2022-08-02T13:47:03.367Z,0.90
2022-08-02T13:49:38.497Z,0.80
2022-08-02T13:52:17.723Z,0.70
2022-08-02T13:54:44.989Z,1.00
2022-08-02T13:57:12.038Z,0.70
2022-08-02T13:59:56.847Z,0.70
2022-08-02T14:02:28.459Z,0.63
2022-08-02T14:04:55.962Z,0.70
2022-08-02T14:07:23.033Z,0.73
2022-08-02T14:09:50.054Z,0.60
2022-08-02T14:12:17.394Z,0.75
2022-08-02T14:14:44.659Z,0.85
2022-08-02T14:17:11.904Z,0.50
2022-08-02T14:19:39.981Z,0.90
2022-08-02T14:22:10.863Z,0.80
2022-08-02T14:24:40.174Z,0.90
2022-08-02T14:27:07.404Z,0.70
2022-08-02T14:29:34.410Z,0.90
2022-08-02T14:32:02.247Z,1.00
2022-08-02T14:34:29.767Z,0.75
2022-08-02T14:36:57.208Z,0.75
2022-08-02T14:39:24.277Z,0.93
2022-08-02T14:41:59.426Z,0.80
2022-08-02T14:44:30.607Z,0.65
2022-08-02T14:46:58.030Z,0.98
2022-08-02T14:49:26.840Z,1.10
2022-08-02T14:51:57.512Z,0.80
2022-08-02T14:54:30.426Z,0.80
2022-08-02T14:57:02.911Z,0.85
2022-08-02T14:59:30.478Z,1.00
2022-08-02T15:01:58.410Z,0.95
2022-08-02T15:04:26.023Z,0.70
2022-08-02T15:06:53.596Z,1.00
2022-08-02T15:09:21.161Z,0.80
2022-08-02T15:11:49.365Z,1.00
2022-08-02T15:14:22.175Z,0.65
2022-08-02T15:16:58.492Z,0.95
2022-08-02T15:19:56.417Z,0.82
2022-08-02T15:22:16.625Z,1.23
2022-08-02T15:24:46.276Z,0.98
2022-08-02T15:27:14.770Z,0.90
2022-08-02T15:29:43.201Z,0.65
2022-08-02T15:32:11.054Z,0.85
2022-08-02T15:34:38.556Z,1.00
2022-08-02T15:37:05.779Z,1.10
2022-08-02T15:39:32.838Z,0.85
2022-08-02T15:41:59.797Z,0.90
2022-08-02T15:44:26.769Z,1.00
2022-08-02T15:46:54.672Z,0.90
2022-08-02T15:49:25.078Z,1.15
2022-08-02T15:51:53.089Z,0.80
2022-08-02T15:54:20.340Z,0.73
2022-08-02T15:56:47.477Z,1.00
2022-08-02T15:59:14.623Z,1.38
2022-08-02T16:01:46.645Z,0.70
2022-08-02T16:04:14.965Z,0.93
2022-08-02T16:06:42.132Z,0.80
2022-08-02T16:09:09.646Z,0.85
2022-08-02T16:11:36.724Z,0.70
2022-08-02T16:14:04.085Z,0.80
2022-08-02T16:16:33.690Z,0.80
2022-08-02T16:19:38.808Z,0.80
2022-08-02T16:21:50.537Z,0.80
2022-08-02T16:24:17.618Z,0.82
2022-08-02T16:26:44.834Z,0.80
2022-08-02T16:29:12.227Z,0.80
2022-08-02T16:31:43.024Z,1.13
2022-08-02T16:34:10.600Z,1.02
2022-08-02T16:36:38.218Z,1.23
2022-08-02T16:39:05.946Z,0.80
2022-08-02T16:41:51.226Z,0.70
2022-08-02T16:44:29.670Z,1.00
2022-08-02T16:47:00.502Z,0.90
2022-08-02T16:50:07.276Z,0.80
2022-08-02T16:52:16.329Z,0.70
2022-08-02T16:54:43.371Z,0.90
2022-08-02T16:57:10.773Z,0.80
2022-08-02T16:59:44.397Z,0.90
2022-08-02T17:02:26.001Z,1.02
2022-08-02T17:04:53.107Z,0.90
2022-08-02T17:08:06.487Z,0.98
2022-08-02T17:12:37.779Z,1.58
2022-08-02T17:16:08.065Z,1.08
2022-08-02T17:17:53.933Z,0.90
2022-08-02T17:20:21.295Z,0.93
2022-08-02T17:22:51.336Z,0.95
2022-08-02T17:25:18.505Z,0.70
2022-08-02T17:27:46.431Z,0.95
2022-08-02T17:30:15.680Z,1.33
2022-08-02T17:32:53.715Z,1.10
2022-08-02T17:35:20.731Z,1.00
2022-08-02T17:37:54.533Z,0.93
2022-08-02T17:40:27.320Z,0.85
2022-08-02T17:42:54.488Z,0.77
2022-08-02T17:45:42.198Z,1.00
2022-08-02T17:48:14.870Z,1.00
2022-08-02T17:50:42.062Z,0.90
2022-08-02T17:53:17.597Z,0.80
2022-08-02T17:55:44.686Z,0.80
2022-08-02T17:58:18.193Z,1.13
2022-08-02T18:00:45.953Z,0.90
2022-08-02T18:03:13.826Z,1.00
2022-08-02T18:05:53.532Z,1.15
2022-08-02T18:08:24.005Z,0.95
2022-08-02T18:10:55.938Z,1.27
2022-08-02T18:13:23.696Z,0.95
2022-08-02T18:15:59.187Z,1.20
2022-08-02T18:18:30.235Z,0.90
2022-08-02T18:20:58.475Z,0.90
2022-08-02T18:23:44.023Z,1.10
2022-08-02T18:26:11.482Z,0.80
2022-08-02T18:28:38.478Z,0.70
2022-08-02T18:31:22.308Z,0.70
2022-08-02T18:33:57.103Z,1.05
2022-08-02T18:36:28.197Z,1.02
2022-08-02T18:38:55.298Z,0.98
2022-08-02T18:41:22.399Z,1.17
2022-08-02T18:43:51.783Z,0.90
2022-08-02T18:46:20.033Z,0.80
2022-08-02T18:48:48.236Z,0.98
2022-08-02T18:51:19.168Z,0.70
2022-08-02T18:53:51.027Z,0.88
2022-08-02T18:56:20.223Z,0.80
2022-08-02T18:58:52.201Z,0.90
2022-08-02T19:01:31.377Z,0.90
2022-08-02T19:04:00.601Z,0.82
2022-08-02T19:06:29.142Z,0.80
2022-08-02T19:09:05.165Z,0.90
2022-08-02T19:11:34.985Z,1.30
2022-08-02T19:14:02.500Z,0.85
2022-08-02T19:16:36.009Z,0.80
2022-08-02T19:19:19.952Z,1.00
2022-08-02T19:22:15.788Z,1.10
2022-08-02T19:29:42.834Z,0.80
2022-08-02T19:32:42.183Z,0.82
2022-08-02T19:35:19.387Z,0.93
2022-08-02T19:37:52.525Z,1.30
2022-08-02T19:40:24.258Z,1.00
2022-08-02T19:44:25.304Z,0.82
2022-08-02T19:45:49.345Z,0.80
2022-08-02T19:48:24.329Z,1.10
2022-08-02T19:50:59.193Z,1.00
2022-08-02T19:53:29.245Z,1.02
2022-08-02T19:56:13.507Z,0.93
2022-08-02T19:58:49.879Z,1.13
2022-08-02T20:01:23.549Z,0.73
2022-08-02T20:03:55.485Z,0.73
2022-08-02T20:06:29.293Z,1.00
2022-08-02T20:09:10.981Z,0.90
2022-08-02T20:11:43.921Z,1.02
2022-08-02T20:14:11.008Z,1.00
2022-08-02T20:16:41.797Z,1.05
2022-08-02T20:19:09.089Z,1.08
2022-08-02T20:21:38.280Z,1.65
2022-08-02T20:24:11.185Z,1.20
2022-08-02T20:26:47.824Z,1.65
2022-08-02T20:29:17.489Z,1.40
2022-08-02T20:32:05.103Z,1.60
2022-08-02T20:34:33.622Z,1.40
2022-08-02T20:37:59.155Z,1.60
2022-08-02T20:39:51.570Z,1.70
2022-08-02T20:42:23.895Z,1.45
2022-08-02T20:44:55.297Z,2.00
2022-08-02T20:47:38.833Z,1.60
2022-08-02T20:50:30.389Z,1.83
2022-08-02T20:52:59.851Z,2.00
2022-08-02T20:55:27.820Z,2.03
2022-08-02T20:58:00.467Z,1.83
2022-08-02T21:00:29.804Z,1.92
2022-08-02T21:02:56.800Z,1.70
2022-08-02T21:05:43.795Z,1.98
2022-08-02T21:08:14.802Z,2.25
2022-08-02T21:10:50.262Z,2.03
2022-08-02T21:13:22.994Z,1.40
2022-08-02T21:15:53.128Z,1.50
2022-08-02T21:18:33.172Z,1.60
2022-08-02T21:21:09.864Z,1.70
2022-08-02T21:23:38.378Z,1.83
2022-08-02T21:26:12.520Z,1.50
2022-08-02T21:28:44.908Z,1.75
2022-08-02T21:31:15.893Z,1.83
2022-08-02T21:33:57.147Z,1.58
2022-08-02T21:36:31.419Z,1.58
2022-08-02T21:39:05.081Z,1.83
2022-08-02T21:41:39.720Z,2.03
2022-08-02T21:44:15.589Z,2.28
2022-08-02T21:46:49.557Z,1.88
2022-08-02T21:49:27.406Z,1.70
2022-08-02T21:52:10.834Z,1.60
2022-08-02T21:54:40.116Z,2.10
2022-08-02T21:57:15.795Z,2.00
2022-08-02T21:59:47.446Z,1.80
2022-08-02T22:02:15.990Z,1.70
2022-08-02T22:04:47.951Z,1.73
2022-08-02T22:07:23.895Z,1.65
2022-08-02T22:09:52.606Z,2.25
2022-08-02T22:12:20.738Z,2.10
2022-08-02T22:14:55.672Z,2.13
2022-08-02T22:17:49.841Z,2.38
2022-08-02T22:20:15.539Z,3.13
2022-08-02T22:22:45.705Z,2.20
2022-08-02T22:25:31.038Z,2.22
2022-08-02T22:28:38.286Z,2.30
2022-08-02T22:30:51.152Z,2.22
2022-08-02T22:33:42.558Z,2.40
2022-08-02T22:36:15.552Z,2.42
2022-08-02T22:38:46.631Z,1.65
2022-08-02T22:41:14.417Z,2.03
2022-08-02T22:43:42.632Z,3.63
2022-08-02T22:46:15.394Z,2.88
2022-08-02T22:48:44.342Z,2.00
2022-08-02T22:51:13.387Z,2.20
2022-08-02T22:53:42.104Z,1.75
2022-08-02T22:56:10.020Z,1.63
2022-08-02T22:59:05.697Z,1.85
2022-08-02T23:01:24.564Z,1.98
2022-08-02T23:03:51.681Z,1.77
2022-08-02T23:06:22.678Z,2.30
2022-08-02T23:08:50.284Z,2.30
2022-08-02T23:11:17.469Z,2.20
2022-08-02T23:13:44.445Z,2.55
2022-08-02T23:16:30.102Z,1.80
2022-08-02T23:19:15.942Z,2.15
2022-08-02T23:22:01.115Z,2.22
2022-08-02T23:24:30.678Z,2.00
2022-08-02T23:26:57.693Z,1.60
2022-08-02T23:29:24.755Z,2.30
2022-08-02T23:31:51.755Z,2.10
2022-08-02T23:34:20.023Z,2.13
2022-08-02T23:36:47.026Z,1.90
2022-08-02T23:39:14.131Z,2.05
2022-08-02T23:41:41.342Z,2.03
2022-08-02T23:44:14.241Z,2.15
2022-08-02T23:46:46.419Z,2.40
2022-08-02T23:49:14.534Z,2.20
2022-08-02T23:51:41.753Z,2.33
2022-08-02T23:54:09.867Z,2.65
2022-08-02T23:56:37.422Z,2.28
2022-08-02T23:59:05.451Z,2.97
